Time;durP1;ratioP1;P1;durP2;ratioP2;P2;SDS_P1;SDS_P2;PMS_P1;PMS_P2;Temp;Humidity;BMP_temperature;BMP_pressure;BME280_temperature;BME280_humidity;BME280_pressure;Samples;Min_cycle;Max_cycle;Signal;HPM_P1;HPM_P2
2021/01/04 00:00:41;;;;;;;21.77;11.27;;;0.80;90.10;;;;;;6240327;23;20000;-84
2021/01/04 00:03:44;;;;;;;19.20;9.00;;;0.90;90.20;;;;;;6233014;23;20083;-80
2021/01/04 00:06:47;;;;;;;20.65;9.88;;;0.90;90.20;;;;;;6194223;23;20010;-81
2021/01/04 00:09:25;;;;;;;21.00;11.02;;;0.90;90.10;;;;;;6248335;23;20035;-82
2021/01/04 00:11:58;;;;;;;21.95;11.02;;;0.90;90.20;;;;;;6252702;22;19996;-82
2021/01/04 00:14:55;;;;;;;17.23;10.18;;;1.00;90.00;;;;;;6250591;23;20064;-83
2021/01/04 00:17:46;;;;;;;19.92;10.63;;;0.90;90.00;;;;;;6251027;23;19996;-80
2021/01/04 00:20:38;;;;;;;23.88;10.57;;;1.00;90.00;;;;;;6170594;23;20007;-81
2021/01/04 00:23:14;;;;;;;20.25;11.48;;;1.00;89.80;;;;;;6224471;23;20024;-81
2021/01/04 00:25:47;;;;;;;22.63;10.60;;;0.90;89.70;;;;;;6251284;23;20011;-82
2021/01/04 00:28:18;;;;;;;16.85;8.45;;;0.90;89.70;;;;;;6224353;23;20008;-81
2021/01/04 00:30:59;;;;;;;18.95;9.93;;;0.90;90.00;;;;;;6224293;23;20004;-81
2021/01/04 00:33:41;;;;;;;21.65;10.40;;;1.00;90.10;;;;;;6223576;23;20339;-79
2021/01/04 00:36:24;;;;;;;23.70;11.73;;;1.00;90.00;;;;;;6223530;23;20004;-81
2021/01/04 00:38:53;;;;;;;;;;;1.00;89.60;;;;;;6223487;23;20085;-81
2021/01/04 00:41:24;;;;;;;20.50;10.10;;;1.00;89.60;;;;;;6222180;23;20250;-80
2021/01/04 00:43:54;;;;;;;22.50;11.30;;;1.00;89.50;;;;;;6250181;23;20060;-83
2021/01/04 00:46:42;;;;;;;20.15;9.77;;;1.00;89.70;;;;;;6248272;22;20082;-82
2021/01/04 00:49:28;;;;;;;23.23;12.60;;;1.00;89.30;;;;;;6222161;23;20054;-82
2021/01/04 00:52:05;;;;;;;21.65;11.40;;;1.00;89.10;;;;;;6249421;22;20056;-83
2021/01/04 00:54:53;;;;;;;16.55;9.20;;;1.00;89.50;;;;;;6248831;23;20385;-81
2021/01/04 00:57:44;;;;;;;15.35;9.13;;;1.00;89.60;;;;;;6222989;23;20023;-82
2021/01/04 01:00:21;;;;;;;17.33;8.70;;;1.00;89.30;;;;;;6221549;23;20008;-82
2021/01/04 01:03:12;;;;;;;21.48;11.13;;;1.00;89.20;;;;;;6250018;23;20361;-82
2021/01/04 01:06:06;;;;;;;19.35;9.52;;;0.90;89.50;;;;;;6221704;23;20000;-82
2021/01/04 01:08:37;;;;;;;17.83;10.68;;;0.90;89.20;;;;;;6248624;23;20417;-82
2021/01/04 01:11:11;;;;;;;18.33;10.83;;;0.90;89.40;;;;;;6223254;23;20008;-82
2021/01/04 01:13:51;;;;;;;18.33;9.73;;;0.90;89.70;;;;;;6249338;23;20000;-81
2021/01/04 01:16:23;;;;;;;20.15;10.32;;;0.90;89.20;;;;;;6255378;23;20010;-82
2021/01/04 01:19:25;;;;;;;16.70;9.68;;;0.90;89.10;;;;;;6228698;23;20007;-81
2021/01/04 01:21:51;;;;;;;17.00;9.85;;;0.90;88.60;;;;;;6250395;22;20004;-82
2021/01/04 01:24:17;;;;;;;16.65;8.77;;;0.80;88.40;;;;;;6223096;23;20528;-84
2021/01/04 01:27:20;;;;;;;16.85;8.50;;;0.70;89.10;;;;;;6250480;23;20051;-82
2021/01/04 01:30:15;;;;;;;15.85;9.57;;;0.70;89.30;;;;;;6248347;22;20034;-82
2021/01/04 01:33:15;;;;;;;15.50;7.68;;;0.70;89.20;;;;;;6222718;23;20000;-83
2021/01/04 01:36:00;;;;;;;14.85;8.48;;;0.70;89.80;;;;;;6247619;23;20000;-81
2021/01/04 01:38:52;;;;;;;19.00;9.48;;;0.80;90.00;;;;;;6221423;23;20020;-82
2021/01/04 01:41:42;;;;;;;20.35;10.13;;;0.80;89.60;;;;;;6221801;23;20004;-83
2021/01/04 01:44:19;;;;;;;18.02;9.75;;;0.70;89.10;;;;;;6222962;23;20032;-81
2021/01/04 01:46:55;;;;;;;19.67;9.90;;;0.70;89.60;;;;;;6222571;23;19997;-81
2021/01/04 01:49:32;;;;;;;15.73;8.35;;;0.80;90.00;;;;;;6248909;23;20000;-83
2021/01/04 01:52:16;;;;;;;16.20;8.18;;;0.80;89.70;;;;;;6222839;23;20106;-82
2021/01/04 01:54:45;;;;;;;11.95;7.40;;;0.80;89.60;;;;;;6222646;23;20023;-80
2021/01/04 01:57:34;;;;;;;13.27;7.72;;;0.90;89.30;;;;;;6222384;23;20058;-83
2021/01/04 02:00:36;;;;;;;18.98;9.60;;;0.90;89.20;;;;;;6222219;23;20004;-81
2021/01/04 02:03:09;;;;;;;15.97;9.20;;;0.90;88.90;;;;;;6249604;23;20381;-83
2021/01/04 02:05:47;;;;;;;16.02;9.10;;;0.90;88.90;;;;;;6222988;23;20227;-83
2021/01/04 02:08:18;;;;;;;15.68;9.43;;;0.90;88.90;;;;;;6249785;23;20004;-83
2021/01/04 02:10:48;;;;;;;18.30;9.75;;;0.90;88.60;;;;;;6229564;23;19996;-84
2021/01/04 02:13:28;;;;;;;14.27;8.20;;;0.90;88.30;;;;;;6270630;23;20198;-82
2021/01/04 02:15:58;;;;;;;17.88;9.32;;;0.90;88.70;;;;;;6227368;23;20087;-83
2021/01/04 02:18:51;;;;;;;18.92;10.30;;;0.80;88.10;;;;;;6222798;23;20015;-84
2021/01/04 02:21:55;;;;;;;17.83;9.35;;;0.80;88.40;;;;;;6247170;23;20344;-84
2021/01/04 02:24:26;;;;;;;15.43;8.57;;;0.80;89.00;;;;;;6247124;23;20064;-83
2021/01/04 02:27:17;;;;;;;19.17;9.23;;;0.80;89.20;;;;;;6249950;23;20325;-84
2021/01/04 02:29:43;;;;;;;20.30;9.65;;;0.80;89.00;;;;;;6247492;22;20015;-83
2021/01/04 02:32:09;;;;;;;18.73;9.77;;;0.90;89.20;;;;;;6226209;23;20008;-81
2021/01/04 02:34:52;;;;;;;16.50;8.65;;;0.90;89.00;;;;;;6239597;23;20004;-85
2021/01/04 02:37:19;;;;;;;15.43;8.80;;;0.90;88.70;;;;;;6232330;23;20012;-82
2021/01/04 02:39:52;;;;;;;14.85;8.32;;;1.00;88.60;;;;;;6248777;22;20005;-80
2021/01/04 02:42:33;;;;;;;14.05;8.15;;;1.00;88.30;;;;;;6247169;23;20102;-82
2021/01/04 02:45:02;;;;;;;15.25;8.18;;;1.00;88.10;;;;;;6249251;23;19996;-81
2021/01/04 02:47:31;;;;;;;13.77;8.57;;;1.00;87.90;;;;;;6232049;23;20020;-82
2021/01/04 02:50:25;;;;;;;19.42;10.10;;;1.00;87.40;;;;;;6229784;22;20086;-82
2021/01/04 02:53:21;;;;;;;16.90;9.40;;;0.90;87.80;;;;;;6249173;23;20389;-82
2021/01/04 02:56:05;;;;;;;13.93;7.75;;;0.90;88.20;;;;;;6245512;23;20008;-81
2021/01/04 02:58:56;;;;;;;16.08;9.70;;;1.00;88.30;;;;;;6220677;23;20008;-82
2021/01/04 03:01:49;;;;;;;19.63;9.93;;;1.00;88.30;;;;;;6248283;22;20013;-81
2021/01/04 03:04:21;;;;;;;16.08;9.15;;;1.00;88.40;;;;;;6204206;23;19997;-80
2021/01/04 03:07:10;;;;;;;18.55;9.98;;;0.90;88.60;;;;;;6248244;23;20028;-82
2021/01/04 03:09:36;;;;;;;16.50;9.25;;;0.90;88.50;;;;;;6248106;22;20019;-81
2021/01/04 03:12:08;;;;;;;18.45;10.00;;;0.90;88.70;;;;;;6248926;23;20035;-80
2021/01/04 03:14:33;;;;;;;18.23;9.73;;;0.90;88.60;;;;;;6221750;23;20054;-81
2021/01/04 03:17:34;;;;;;;15.93;9.45;;;0.90;88.90;;;;;;6221572;23;20447;-82
2021/01/04 03:22:36;;;;;;;24.15;11.90;;;0.90;88.40;;;;;;6252105;22;20093;-85
2021/01/04 03:25:12;;;;;;;22.15;10.25;;;0.90;88.40;;;;;;6226136;23;20108;-84
2021/01/04 03:27:41;;;;;;;17.45;9.57;;;0.90;88.70;;;;;;6251467;23;20108;-85
2021/01/04 03:30:07;;;;;;;17.33;9.38;;;0.90;88.40;;;;;;6224356;23;20007;-84
2021/01/04 03:32:33;;;;;;;15.18;9.18;;;0.90;88.30;;;;;;6223888;23;19997;-85
2021/01/04 03:34:59;;;;;;;15.23;8.55;;;0.90;88.40;;;;;;6223190;23;20091;-84
2021/01/04 03:37:24;;;;;;;14.63;8.73;;;0.80;88.20;;;;;;6228743;23;20023;-83
2021/01/04 03:39:50;;;;;;;16.70;9.18;;;0.80;88.30;;;;;;6266092;22;20000;-83
2021/01/04 03:42:16;;;;;;;15.38;8.43;;;0.80;88.70;;;;;;6240455;23;20064;-84
2021/01/04 03:44:41;;;;;;;20.35;10.18;;;0.80;88.70;;;;;;6237365;23;20008;-84
2021/01/04 03:47:07;;;;;;;18.65;8.45;;;0.80;88.60;;;;;;6243026;23;20002;-84
2021/01/04 03:49:33;;;;;;;17.52;8.75;;;0.80;88.90;;;;;;6273901;22;20015;-84
2021/01/04 03:52:00;;;;;;;18.17;10.25;;;0.90;89.20;;;;;;6275482;22;19992;-84
2021/01/04 03:54:26;;;;;;;17.58;10.32;;;0.80;88.40;;;;;;6275761;22;19996;-84
2021/01/04 03:56:53;;;;;;;22.23;12.07;;;0.80;88.70;;;;;;6249761;22;20028;-85
2021/01/04 03:59:19;;;;;;;22.55;11.48;;;0.80;89.10;;;;;;6249034;22;20090;-84
2021/01/04 04:01:55;;;;;;;18.42;10.15;;;0.80;89.00;;;;;;6247072;23;20016;-83
2021/01/04 04:04:22;;;;;;;20.10;10.88;;;0.80;89.40;;;;;;6267621;22;20015;-84
2021/01/04 04:06:48;;;;;;;21.42;11.15;;;0.70;89.30;;;;;;6240919;23;20011;-84
2021/01/04 04:09:15;;;;;;;22.42;11.68;;;0.80;89.20;;;;;;6266780;23;20004;-84
2021/01/04 04:11:42;;;;;;;20.05;10.15;;;0.80;89.40;;;;;;6263966;22;20007;-83
2021/01/04 04:14:08;;;;;;;20.83;10.88;;;0.80;89.60;;;;;;6236978;23;20000;-84
2021/01/04 04:16:34;;;;;;;18.27;10.25;;;0.70;89.10;;;;;;6264953;23;20056;-85
2021/01/04 04:19:00;;;;;;;20.75;11.13;;;0.70;88.70;;;;;;6262860;23;19996;-85
2021/01/04 04:21:26;;;;;;;19.80;11.13;;;0.60;89.50;;;;;;6231311;23;20008;-85
2021/01/04 04:23:51;;;;;;;16.42;9.15;;;0.60;89.90;;;;;;6227858;23;20016;-85
2021/01/04 04:26:18;;;;;;;21.58;11.40;;;0.60;90.00;;;;;;6228265;23;20026;-85
2021/01/04 04:28:44;;;;;;;24.30;12.30;;;0.60;89.00;;;;;;6232107;23;20019;-85
2021/01/04 04:31:12;;;;;;;20.23;10.98;;;0.50;89.70;;;;;;6260752;22;19988;-86
2021/01/04 04:33:38;;;;;;;22.27;9.93;;;0.40;90.00;;;;;;6247419;22;20585;-85
2021/01/04 04:36:04;;;;;;;20.35;11.30;;;0.40;90.40;;;;;;6273971;22;19992;-84
2021/01/04 04:38:30;;;;;;;17.10;10.20;;;0.40;90.20;;;;;;6247920;23;20011;-84
2021/01/04 04:40:55;;;;;;;22.90;11.40;;;0.40;90.30;;;;;;6247756;22;20184;-84
2021/01/04 04:43:33;;;;;;;20.13;10.13;;;0.30;90.30;;;;;;6248678;23;20015;-84
2021/01/04 04:46:00;;;;;;;18.63;9.57;;;0.30;90.50;;;;;;6246173;22;19992;-84
2021/01/04 04:48:57;;;;;;;19.33;9.90;;;0.40;90.70;;;;;;6274435;22;20031;-83
2021/01/04 04:51:45;;;;;;;17.25;9.63;;;0.50;90.70;;;;;;6221956;22;20012;-86
2021/01/04 04:54:14;;;;;;;19.42;10.45;;;0.50;90.60;;;;;;6272721;22;20133;-84
2021/01/04 04:57:03;;;;;;;20.10;10.63;;;0.50;90.10;;;;;;6265496;23;20030;-84
2021/01/04 04:59:48;;;;;;;20.73;10.73;;;0.40;90.30;;;;;;6238333;23;20004;-84
2021/01/04 05:02:41;;;;;;;17.98;9.25;;;0.50;90.40;;;;;;6262313;23;20058;-83
2021/01/04 05:05:30;;;;;;;13.52;7.93;;;0.50;90.50;;;;;;6264040;23;19984;-84
2021/01/04 05:08:14;;;;;;;15.63;8.93;;;0.50;90.60;;;;;;6267140;23;20015;-84
2021/01/04 05:10:44;;;;;;;15.80;9.32;;;0.60;90.50;;;;;;6265725;23;19996;-85
2021/01/04 05:13:28;;;;;;;19.77;10.00;;;0.60;90.80;;;;;;6265853;23;20490;-83
2021/01/04 05:15:59;;;;;;;19.95;10.98;;;0.60;90.10;;;;;;6257957;23;20011;-84
2021/01/04 05:19:24;;;;;;;20.27;10.25;;;0.50;89.80;;;;;;6239541;23;20011;-85
2021/01/04 05:22:20;;;;;;;18.50;8.57;;;0.40;90.10;;;;;;6145061;23;20022;-84
2021/01/04 05:24:52;;;;;;;21.35;11.30;;;0.40;90.50;;;;;;6112090;23;20037;-84
2021/01/04 05:27:41;;;;;;;19.27;10.80;;;0.50;90.40;;;;;;6214584;23;20023;-84
2021/01/04 05:30:26;;;;;;;22.45;11.20;;;0.50;90.40;;;;;;6238030;22;20000;-85
2021/01/04 05:33:20;;;;;;;19.90;11.05;;;0.50;90.50;;;;;;6232817;23;20007;-84
2021/01/04 05:35:48;;;;;;;20.70;11.65;;;0.60;90.20;;;;;;6259496;23;20024;-84
2021/01/04 05:38:45;;;;;;;18.05;10.15;;;0.50;89.80;;;;;;6260485;23;20004;-84
2021/01/04 05:41:32;;;;;;;21.23;11.40;;;0.50;90.10;;;;;;6272588;22;20012;-83
2021/01/04 05:44:26;;;;;;;23.05;12.35;;;0.50;90.10;;;;;;6243608;23;20031;-84
2021/01/04 05:47:04;;;;;;;19.63;10.48;;;0.50;90.00;;;;;;6260356;23;20024;-84
2021/01/04 05:49:48;;;;;;;17.50;10.23;;;0.50;90.10;;;;;;6264308;23;20001;-84
2021/01/04 05:52:17;;;;;;;22.35;11.43;;;0.50;90.10;;;;;;6262441;23;20275;-84
2021/01/04 05:54:42;;;;;;;19.88;10.43;;;0.50;90.00;;;;;;6263439;23;20027;-84
2021/01/04 05:57:09;;;;;;;20.67;11.52;;;0.60;90.20;;;;;;6264282;23;20012;-84
2021/01/04 05:59:50;;;;;;;19.73;11.23;;;0.60;90.20;;;;;;6237048;23;20035;-84
2021/01/04 06:02:34;;;;;;;25.98;13.00;;;0.60;90.20;;;;;;6259553;23;20000;-85
2021/01/04 06:05:14;;;;;;;26.25;13.20;;;0.60;90.10;;;;;;6255304;23;20062;-85
2021/01/04 06:07:42;;;;;;;21.52;11.52;;;0.60;90.10;;;;;;6256962;23;20024;-84
2021/01/04 06:10:18;;;;;;;27.20;13.05;;;0.60;90.10;;;;;;6229463;23;20011;-85
2021/01/04 06:12:50;;;;;;;25.67;12.07;;;0.70;90.10;;;;;;6231072;23;20004;-85
2021/01/04 06:15:29;;;;;;;20.45;11.15;;;0.60;89.90;;;;;;6230621;23;20017;-83
2021/01/04 06:18:08;;;;;;;22.10;11.68;;;0.60;89.90;;;;;;6262605;23;20008;-83
2021/01/04 06:20:36;;;;;;;22.75;11.68;;;0.60;89.70;;;;;;6262838;22;20439;-83
2021/01/04 06:23:12;;;;;;;28.58;14.48;;;0.60;90.00;;;;;;6263184;23;20012;-82
2021/01/04 06:25:38;;;;;;;25.63;13.55;;;0.60;90.10;;;;;;6262505;23;20027;-82
2021/01/04 06:28:04;;;;;;;23.88;12.23;;;0.60;90.20;;;;;;6235206;23;19996;-83
2021/01/04 06:30:39;;;;;;;18.90;10.60;;;0.60;90.20;;;;;;6262525;22;20004;-83
2021/01/04 06:33:22;;;;;;;21.70;11.02;;;0.70;90.10;;;;;;6236304;23;20004;-83
2021/01/04 06:35:58;;;;;;;22.70;12.02;;;0.60;90.00;;;;;;6239286;23;20000;-86
2021/01/04 06:38:27;;;;;;;26.67;13.95;;;0.60;90.00;;;;;;6267336;23;19996;-85
2021/01/04 06:40:54;;;;;;;31.17;14.95;;;0.60;89.90;;;;;;6240339;23;20000;-85
2021/01/04 06:43:30;;;;;;;27.05;14.23;;;0.60;89.80;;;;;;6240499;23;20011;-85
2021/01/04 06:46:15;;;;;;;28.77;15.45;;;0.50;90.20;;;;;;6240341;23;20000;-85
2021/01/04 06:48:55;;;;;;;31.80;16.05;;;0.50;90.20;;;;;;6240275;23;20000;-84
2021/01/04 06:51:59;;;;;;;28.00;13.85;;;0.40;90.50;;;;;;6266405;22;20000;-85
2021/01/04 06:55:02;;;;;;;26.55;12.63;;;0.50;90.80;;;;;;6267581;23;20007;-86
2021/01/04 06:57:48;;;;;;;;;;;0.50;91.00;;;;;;6241729;23;20011;-86
2021/01/04 07:00:18;;;;;;;33.80;14.32;;;0.50;90.70;;;;;;6266418;22;19990;-85
2021/01/04 07:02:59;;;;;;;26.88;12.57;;;0.60;90.60;;;;;;6268043;23;19996;-85
2021/01/04 07:06:07;;;;;;;31.08;15.18;;;0.60;90.60;;;;;;6266573;23;19997;-86
2021/01/04 07:08:51;;;;;;;22.35;11.43;;;0.60;90.50;;;;;;6119757;23;20002;-86
2021/01/04 07:11:48;;;;;;;26.33;13.13;;;0.60;90.50;;;;;;6255827;22;20004;-85
2021/01/04 07:14:20;;;;;;;36.53;17.60;;;0.60;90.40;;;;;;6251462;23;20050;-83
2021/01/04 07:17:18;;;;;;;32.75;14.93;;;0.60;90.40;;;;;;6240649;23;20055;-85
2021/01/04 07:20:14;;;;;;;32.60;15.40;;;0.60;90.40;;;;;;6266341;22;20008;-85
2021/01/04 07:22:58;;;;;;;34.42;16.23;;;0.60;90.40;;;;;;6265767;23;20000;-85
2021/01/04 07:26:02;;;;;;;31.23;15.15;;;0.60;90.40;;;;;;6264488;23;20038;-83
2021/01/04 07:28:34;;;;;;;38.05;16.83;;;0.60;90.40;;;;;;6194430;23;20340;-83
2021/01/04 07:31:09;;;;;;;36.77;18.10;;;0.50;90.50;;;;;;6264478;22;20004;-83
2021/01/04 07:33:38;;;;;;;34.47;15.88;;;0.50;90.50;;;;;;6265475;23;20011;-84
2021/01/04 07:36:23;;;;;;;33.28;15.30;;;0.40;90.60;;;;;;6265849;23;19996;-82
2021/01/04 07:38:54;;;;;;;30.08;15.75;;;0.50;90.70;;;;;;6243706;23;20004;-80
2021/01/04 07:41:30;;;;;;;26.60;14.17;;;0.50;90.70;;;;;;6245343;23;19991;-80
2021/01/04 07:44:20;;;;;;;34.03;16.40;;;0.60;90.90;;;;;;6245452;23;20306;-80
2021/01/04 07:47:30;;;;;;;37.35;17.90;;;0.60;90.50;;;;;;6244851;23;20005;-80
2021/01/04 07:49:59;;;;;;;37.13;17.35;;;0.60;90.50;;;;;;6121319;23;20026;-82
2021/01/04 07:52:55;;;;;;;31.90;15.77;;;0.60;90.70;;;;;;6113800;23;20027;-79
2021/01/04 07:55:48;;;;;;;35.47;16.48;;;0.50;90.60;;;;;;6192164;23;20087;-78
2021/01/04 07:58:44;;;;;;;32.53;15.48;;;0.50;90.70;;;;;;6226310;23;20015;-79
2021/01/04 08:01:34;;;;;;;30.75;14.52;;;0.60;90.80;;;;;;6232669;23;20004;-80
2021/01/04 08:04:25;;;;;;;33.42;16.52;;;0.60;90.90;;;;;;6229165;23;20004;-81
2021/01/04 08:07:11;;;;;;;25.17;13.82;;;0.60;90.80;;;;;;6253363;23;19996;-80
2021/01/04 08:09:58;;;;;;;27.27;13.13;;;0.60;90.70;;;;;;6227637;23;20076;-82
2021/01/04 08:13:05;;;;;;;32.40;15.27;;;0.60;90.70;;;;;;6259734;23;20003;-84
2021/01/04 08:15:45;;;;;;;35.38;17.00;;;0.60;90.80;;;;;;6231781;23;20069;-83
2021/01/04 08:18:18;;;;;;;31.83;15.88;;;0.70;90.70;;;;;;6254955;23;20004;-82
2021/01/04 08:20:51;;;;;;;34.17;16.25;;;0.70;90.50;;;;;;6256320;22;20000;-83
2021/01/04 08:23:38;;;;;;;32.85;15.88;;;0.60;90.40;;;;;;6257783;23;20008;-83
2021/01/04 08:26:50;;;;;;;35.92;17.98;;;0.60;90.60;;;;;;6253028;23;20007;-82
2021/01/04 08:29:25;;;;;;;39.50;18.63;;;0.60;90.50;;;;;;6132688;23;20438;-84
2021/01/04 08:32:13;;;;;;;36.25;17.13;;;0.60;90.50;;;;;;6251031;22;20506;-82
2021/01/04 08:34:43;;;;;;;33.97;15.95;;;0.60;90.80;;;;;;6271746;22;19999;-81
2021/01/04 08:37:09;;;;;;;34.53;17.50;;;0.60;90.70;;;;;;6246539;23;20022;-81
2021/01/04 08:39:46;;;;;;;40.35;18.40;;;0.70;90.60;;;;;;6247287;23;20015;-81
2021/01/04 08:42:25;;;;;;;36.05;18.40;;;0.70;90.40;;;;;;6272314;23;19996;-80
2021/01/04 08:45:04;;;;;;;35.65;17.83;;;0.60;90.40;;;;;;6273282;22;19992;-80
2021/01/04 08:47:35;;;;;;;33.50;16.90;;;0.60;90.80;;;;;;6266762;23;19988;-83
2021/01/04 08:50:30;;;;;;;34.95;17.13;;;0.60;90.80;;;;;;6259299;22;20004;-82
2021/01/04 08:53:13;;;;;;;31.73;18.17;;;0.50;90.70;;;;;;6231770;23;20472;-85
2021/01/04 08:55:40;;;;;;;30.23;15.95;;;0.60;91.00;;;;;;6232604;23;20031;-84
2021/01/04 08:58:20;;;;;;;31.38;15.93;;;0.60;91.30;;;;;;6259190;23;20020;-85
2021/01/04 09:01:17;;;;;;;31.58;14.68;;;0.60;91.00;;;;;;6232631;23;20070;-85
2021/01/04 09:03:42;;;;;;;34.10;17.88;;;0.70;90.90;;;;;;6258915;23;20000;-83
2021/01/04 09:06:23;;;;;;;37.80;17.13;;;0.70;90.70;;;;;;6258725;23;20007;-85
2021/01/04 09:08:54;;;;;;;31.90;14.93;;;0.70;90.80;;;;;;6231600;23;20074;-84
2021/01/04 09:11:20;;;;;;;36.45;18.70;;;0.70;90.80;;;;;;6232092;23;20004;-85
2021/01/04 09:13:47;;;;;;;32.50;17.13;;;0.80;90.50;;;;;;6264202;22;20004;-76
2021/01/04 09:16:32;;;;;;;34.88;16.48;;;0.70;90.60;;;;;;6274221;22;20018;-77
2021/01/04 09:19:29;;;;;;;38.58;19.38;;;0.70;90.60;;;;;;6247851;22;20012;-78
2021/01/04 09:24:35;;;;;;;37.00;17.48;;;0.80;90.70;;;;;;6268783;22;20079;-80
2021/01/04 09:27:23;;;;;;;33.08;15.35;;;0.70;90.30;;;;;;6269090;22;19992;-81
2021/01/04 09:30:10;;;;;;;28.08;14.85;;;0.80;90.60;;;;;;6225026;22;19999;-82
2021/01/04 09:32:42;;;;;;;37.70;18.05;;;0.80;90.60;;;;;;6241705;22;19992;-82
2021/01/04 09:35:28;;;;;;;35.17;17.10;;;0.80;90.30;;;;;;6241486;22;20027;-82
2021/01/04 09:38:14;;;;;;;33.30;16.38;;;0.80;90.60;;;;;;6215690;22;20008;-82
2021/01/04 09:40:49;;;;;;;37.63;17.70;;;0.80;90.60;;;;;;6213972;23;19996;-81
2021/01/04 09:43:14;;;;;;;33.17;15.73;;;0.80;90.50;;;;;;6215308;22;19996;-81
2021/01/04 09:45:40;;;;;;;38.67;18.50;;;0.80;90.60;;;;;;6214775;23;20003;-81
2021/01/04 09:48:38;;;;;;;42.00;18.30;;;0.70;90.10;;;;;;6240735;22;20008;-81
2021/01/04 09:51:08;;;;;;;40.28;18.65;;;0.70;90.60;;;;;;6240523;22;20041;-81
2021/01/04 09:53:39;;;;;;;39.55;18.20;;;0.70;90.60;;;;;;6242071;22;20020;-81
2021/01/04 09:56:28;;;;;;;39.80;18.40;;;0.60;90.70;;;;;;6241883;22;20023;-82
2021/01/04 09:59:09;;;;;;;36.38;17.02;;;0.50;91.00;;;;;;6216143;22;20032;-82
2021/01/04 10:01:51;;;;;;;34.83;17.15;;;0.50;91.20;;;;;;6215186;23;20092;-80
2021/01/04 10:04:35;;;;;;;37.17;16.60;;;0.60;91.10;;;;;;6216051;23;19988;-81
2021/01/04 10:07:07;;;;;;;35.47;16.75;;;0.60;91.10;;;;;;6241930;22;20008;-80
2021/01/04 10:09:39;;;;;;;32.28;17.38;;;0.70;91.10;;;;;;6215516;23;19997;-81
2021/01/04 10:12:07;;;;;;;35.65;16.67;;;0.70;91.10;;;;;;6215701;22;19989;-82
2021/01/04 10:14:33;;;;;;;34.35;16.33;;;0.70;91.00;;;;;;6239234;22;19997;-81
2021/01/04 10:17:01;;;;;;;36.58;17.23;;;0.70;91.10;;;;;;6231701;23;20031;-81
2021/01/04 10:19:34;;;;;;;39.15;18.63;;;0.70;90.90;;;;;;6207214;23;20068;-82
2021/01/04 10:22:08;;;;;;;36.60;18.05;;;0.60;90.90;;;;;;6206553;23;20015;-81
2021/01/04 10:25:01;;;;;;;35.25;17.83;;;0.60;91.00;;;;;;6205458;23;20008;-82
2021/01/04 10:27:28;;;;;;;41.58;19.85;;;0.60;90.90;;;;;;6191128;23;20016;-82
2021/01/04 10:29:57;;;;;;;45.35;20.70;;;0.50;91.30;;;;;;6232361;23;20001;-82
2021/01/04 10:32:29;;;;;;;44.97;20.52;;;0.40;91.10;;;;;;6206408;23;20036;-83
2021/01/04 10:34:55;;;;;;;;;;;0.20;91.70;;;;;;6208466;23;20005;-82
2021/01/04 10:37:30;;;;;;;46.63;21.85;;;0.20;91.90;;;;;;6205951;23;19904;-83
2021/01/04 10:40:03;;;;;;;39.67;19.38;;;0.10;92.30;;;;;;6231933;23;20104;-83
2021/01/04 10:42:29;;;;;;;36.58;17.67;;;0.10;92.60;;;;;;6234167;23;20007;-83
2021/01/04 10:45:17;;;;;;;45.42;20.17;;;0.20;92.70;;;;;;6207084;23;20001;-83
2021/01/04 10:47:45;;;;;;;43.53;20.20;;;0.30;92.40;;;;;;6213103;23;20026;-83
2021/01/04 10:50:18;;;;;;;46.58;19.73;;;0.30;92.20;;;;;;6211476;23;20027;-82
2021/01/04 10:52:55;;;;;;;38.90;18.45;;;0.30;92.30;;;;;;6206344;23;20008;-82
2021/01/04 10:55:24;;;;;;;42.60;20.60;;;0.30;92.20;;;;;;6233814;23;20063;-82
2021/01/04 10:57:56;;;;;;;37.35;17.23;;;0.40;92.10;;;;;;6206703;23;20005;-81
2021/01/04 11:00:28;;;;;;;34.67;18.20;;;0.40;92.00;;;;;;6206718;23;20005;-82
2021/01/04 11:02:55;;;;;;;42.00;19.45;;;0.40;92.00;;;;;;6232903;23;20017;-82
2021/01/04 11:05:34;;;;;;;38.20;18.30;;;0.50;91.90;;;;;;6232688;23;20007;-82
2021/01/04 11:08:31;;;;;;;38.33;18.15;;;0.50;91.90;;;;;;6233828;23;20001;-83
2021/01/04 11:11:28;;;;;;;40.17;19.63;;;0.60;91.60;;;;;;6188992;23;20004;-83
2021/01/04 11:14:04;;;;;;;39.90;20.23;;;0.50;91.50;;;;;;6206376;23;19996;-82
2021/01/04 11:16:40;;;;;;;41.40;20.73;;;0.50;91.50;;;;;;6207161;23;20001;-82
2021/01/04 11:19:06;;;;;;;43.30;19.55;;;0.50;91.60;;;;;;6206416;23;20031;-83
2021/01/04 11:21:44;;;;;;;39.60;20.17;;;0.40;91.80;;;;;;6205850;23;20005;-82
2021/01/04 11:24:13;;;;;;;42.05;20.17;;;0.40;91.80;;;;;;6205545;23;20009;-83
2021/01/04 11:26:43;;;;;;;44.83;22.80;;;0.50;91.80;;;;;;6206372;23;20012;-83
2021/01/04 11:29:09;;;;;;;38.22;20.77;;;0.50;91.60;;;;;;6234695;23;20016;-83
2021/01/04 11:31:35;;;;;;;35.22;18.95;;;0.50;91.60;;;;;;6239957;22;20024;-81
2021/01/04 11:34:02;;;;;;;44.70;21.75;;;0.50;91.70;;;;;;6211496;23;20013;-84
2021/01/04 11:36:28;;;;;;;45.70;24.20;;;0.50;91.60;;;;;;6232817;23;20004;-82
2021/01/04 11:38:53;;;;;;;47.25;23.80;;;0.40;91.70;;;;;;6206656;23;20005;-82
2021/01/04 11:41:19;;;;;;;44.25;22.55;;;0.40;91.50;;;;;;6204131;23;20001;-83
2021/01/04 11:43:47;;;;;;;41.90;20.50;;;0.40;91.80;;;;;;6204833;23;20000;-83
2021/01/04 11:46:14;;;;;;;33.78;17.65;;;0.40;92.00;;;;;;6207258;23;20027;-83
2021/01/04 11:48:39;;;;;;;48.47;24.45;;;0.40;92.00;;;;;;6232282;23;20009;-83
2021/01/04 11:51:05;;;;;;;43.53;21.42;;;0.40;91.90;;;;;;6205637;23;20039;-84
2021/01/04 11:53:31;;;;;;;35.22;18.08;;;0.40;92.00;;;;;;6207322;23;20020;-84
2021/01/04 11:55:57;;;;;;;47.65;24.92;;;0.40;92.00;;;;;;6210620;23;19993;-81
2021/01/04 11:58:23;;;;;;;48.72;25.85;;;0.40;91.80;;;;;;6241061;22;20019;-83
2021/01/04 12:00:49;;;;;;;46.92;24.55;;;0.30;92.10;;;;;;6208986;23;20015;-83
2021/01/04 12:03:15;;;;;;;42.30;23.60;;;0.20;92.30;;;;;;6204110;23;20055;-81
2021/01/04 12:05:40;;;;;;;45.42;23.40;;;0.20;93.00;;;;;;6199279;23;20028;-84
2021/01/04 12:08:06;;;;;;;40.22;21.38;;;0.20;93.00;;;;;;6197156;23;20001;-83
2021/01/04 12:10:32;;;;;;;44.38;23.00;;;0.20;93.10;;;;;;6194701;23;20005;-84
2021/01/04 12:12:58;;;;;;;42.88;22.40;;;0.30;93.10;;;;;;6195238;23;20344;-84
2021/01/04 12:15:24;;;;;;;41.35;21.50;;;0.30;92.90;;;;;;6195892;23;20351;-83
2021/01/04 12:17:53;;;;;;;46.30;25.02;;;0.30;93.00;;;;;;6196426;23;20005;-85
2021/01/04 12:20:22;;;;;;;45.50;24.48;;;0.40;92.90;;;;;;6197606;23;20085;-84
2021/01/04 12:22:48;;;;;;;43.20;23.25;;;0.30;92.80;;;;;;6221235;23;20063;-84
2021/01/04 12:25:14;;;;;;;46.25;26.05;;;0.30;93.00;;;;;;6221132;23;19997;-85
2021/01/04 12:27:40;;;;;;;53.50;26.38;;;0.40;93.10;;;;;;6195515;23;20342;-82
2021/01/04 12:30:06;;;;;;;46.40;25.80;;;0.20;93.00;;;;;;6194675;23;20004;-83
2021/01/04 12:32:32;;;;;;;44.03;24.35;;;0.20;93.40;;;;;;6193922;23;20058;-82
2021/01/04 12:34:58;;;;;;;42.08;22.38;;;0.10;93.40;;;;;;6195312;23;20064;-83
2021/01/04 12:37:24;;;;;;;44.17;22.95;;;0.10;93.80;;;;;;6194771;23;20022;-84
2021/01/04 12:39:52;;;;;;;43.20;23.25;;;0.20;93.70;;;;;;6195354;23;20004;-86
2021/01/04 12:42:18;;;;;;;45.42;22.35;;;0.20;93.70;;;;;;6203148;23;20015;-86
2021/01/04 12:44:46;;;;;;;46.83;24.88;;;0.20;93.80;;;;;;6195191;23;20035;-85
2021/01/04 12:47:12;;;;;;;51.47;26.02;;;0.20;93.60;;;;;;6193571;23;20016;-86
2021/01/04 12:49:38;;;;;;;40.05;20.92;;;0.20;93.30;;;;;;6194243;23;20059;-84
2021/01/04 12:52:03;;;;;;;34.53;18.27;;;0.20;93.50;;;;;;6222249;23;20020;-84
2021/01/04 12:54:31;;;;;;;43.47;23.05;;;0.20;93.70;;;;;;6219928;23;20015;-84
2021/01/04 12:57:03;;;;;;;41.85;22.63;;;0.20;93.30;;;;;;6194765;23;20349;-84
2021/01/04 12:59:29;;;;;;;38.25;21.23;;;0.20;93.60;;;;;;6212160;23;20095;-83
2021/01/04 13:01:56;;;;;;;43.10;22.83;;;0.20;93.70;;;;;;6212581;23;20006;-83
2021/01/04 13:04:26;;;;;;;40.30;22.05;;;0.20;93.40;;;;;;6198017;23;20007;-84
2021/01/04 13:06:56;;;;;;;38.92;20.25;;;0.20;93.40;;;;;;6196152;23;20001;-85
2021/01/04 13:09:23;;;;;;;46.38;22.92;;;0.20;93.40;;;;;;6229446;23;19997;-84
2021/01/04 13:11:50;;;;;;;45.30;23.85;;;0.10;93.30;;;;;;6215027;22;20005;-83
2021/01/04 13:14:18;;;;;;;44.50;22.67;;;0.10;93.30;;;;;;6215816;23;20083;-83
2021/01/04 13:16:46;;;;;;;38.22;19.92;;;0.10;93.40;;;;;;6241062;22;20024;-84
2021/01/04 13:19:13;;;;;;;47.80;25.88;;;0.10;93.60;;;;;;6196179;23;20428;-85
2021/01/04 13:21:39;;;;;;;39.30;22.33;;;0.10;93.30;;;;;;6220611;23;20380;-86
2021/01/04 13:24:07;;;;;;;42.78;23.02;;;-0.10;93.90;;;;;;6194768;23;20019;-86
2021/01/04 13:26:39;;;;;;;47.45;23.55;;;-0.10;94.10;;;;;;6192951;23;20059;-86
2021/01/04 13:29:05;;;;;;;38.95;20.15;;;0.00;94.20;;;;;;6192970;23;20472;-86
2021/01/04 13:31:31;;;;;;;38.00;20.35;;;0.00;94.20;;;;;;6193748;23;20004;-85
2021/01/04 13:33:56;;;;;;;40.08;21.58;;;0.00;94.30;;;;;;6193989;23;20082;-86